L'Hospitalet de Llobregat, Spain
Current Conditions -  °F | °C
As of 5:22 PM on Thursday 27 Nov 2014 (Local Time) from LEBL Reporting Station
Thunderstorm Thunderstorm  
Wind Chill: 59°   Ceiling: 900
Heat Index: 59°   Visibility: 1.8mi
Dew Point: 57°   Wind: 6mph
Humidity: 94%   Direction: 250°WSW
Pressure: 29.62"   Gusts: NA
Location:  41.36°N, 2.1°E
Report Text: LEBL 271622Z 25005KT 180V300 3000 TSRA FEW007 BKN009FEW018CB 15/14 Q1003 BECMG NSW
Loading
Personal Weather Stations






























Interactive Weather Map New forecast layout! Learn more

10-Day Weather Forecast

Advertisements
Track Severe Weather on mobile